BEL9TK HKJK-EBBR
Flight info
| Callsign | BEL9TK |
|---|---|
| Flight time | N/A |
| Altitude | 38000 |
| Route | ANTUK2D APKUB UQ293 EKMOG DCT NN UW325 SIPKI UT325 GOVEL UM215 ONUDA UG862 DIR UB730 DJA UA605 CIRTA DCT BUKID DCT GARPU DCT PIGOS DCT BARSO DCT IRMAR DCT KINES DCT VANAS DCT MOBLO DCT UBIMA DCT GILIR DCT PENDU DCT IXILU DCT GIVOR DCT SORAL DCT IBERA N853 DIK Y37 BATTY BATTY7A |
| Aircraft | A333/H-SDE3GHIJ2J3J5M1RVWXY/LB2D1 |
Departure
| Time | N/A |
|---|---|
| Airport | Jomo Kenyatta International Airport (HKJK) |
Arrival
| Time | 2026-05-07 08:56 |
|---|---|
| Airport | Brussels Airport (EBBR) |
| Time | Latitude | Longitude | Altitude | Speed | Heading |
|---|---|---|---|---|---|
| 2026-05-07 08:02 | 45.31276 | 6.75660 | 35201 ft | 473 kts | 353° |
| 2026-05-07 08:02 | 45.34569 | 6.75437 | 35257 ft | 475 kts | 356° |
| 2026-05-07 08:02 | 45.37850 | 6.75216 | 35484 ft | 469 kts | 357° |
| 2026-05-07 08:03 | 45.41068 | 6.75006 | 36517 ft | 471 kts | 353° |
| 2026-05-07 08:03 | 45.44374 | 6.74782 | 36354 ft | 479 kts | 353° |
| 2026-05-07 08:03 | 45.47710 | 6.74554 | 36108 ft | 480 kts | 353° |
| 2026-05-07 08:04 | 45.54364 | 6.74101 | 36015 ft | 478 kts | 353° |
| 2026-05-07 08:04 | 45.61005 | 6.73648 | 36028 ft | 478 kts | 353° |
| 2026-05-07 08:05 | 45.67657 | 6.73189 | 36027 ft | 479 kts | 353° |
| 2026-05-07 08:05 | 45.74322 | 6.72728 | 36020 ft | 479 kts | 353° |
| 2026-05-07 08:06 | 45.80983 | 6.72269 | 36021 ft | 479 kts | 354° |
| 2026-05-07 08:06 | 45.87644 | 6.71815 | 36022 ft | 479 kts | 354° |
| 2026-05-07 08:07 | 45.94295 | 6.71364 | 36016 ft | 478 kts | 354° |
| 2026-05-07 08:07 | 46.00938 | 6.70912 | 36020 ft | 478 kts | 354° |
| 2026-05-07 08:08 | 46.07573 | 6.70461 | 36018 ft | 477 kts | 354° |
| 2026-05-07 08:08 | 46.14107 | 6.69189 | 36013 ft | 471 kts | 341° |
| 2026-05-07 08:09 | 46.20369 | 6.66445 | 36009 ft | 470 kts | 339° |
| 2026-05-07 08:09 | 46.26535 | 6.63446 | 36008 ft | 471 kts | 338° |
| 2026-05-07 08:10 | 46.32744 | 6.60373 | 36026 ft | 471 kts | 338° |
| 2026-05-07 08:10 | 46.38950 | 6.57319 | 36019 ft | 471 kts | 339° |
| 2026-05-07 08:11 | 46.45163 | 6.54273 | 36012 ft | 472 kts | 339° |
| 2026-05-07 08:11 | 46.51383 | 6.51222 | 36014 ft | 472 kts | 339° |
| 2026-05-07 08:12 | 46.57604 | 6.48163 | 36014 ft | 472 kts | 339° |
| 2026-05-07 08:12 | 46.63823 | 6.45096 | 36015 ft | 471 kts | 339° |
| 2026-05-07 08:13 | 46.70024 | 6.42031 | 36021 ft | 470 kts | 339° |
| 2026-05-07 08:13 | 46.76217 | 6.38961 | 36018 ft | 470 kts | 339° |
| 2026-05-07 08:14 | 46.82414 | 6.35882 | 36026 ft | 470 kts | 339° |
| 2026-05-07 08:14 | 46.88617 | 6.32792 | 36027 ft | 471 kts | 339° |
| 2026-05-07 08:15 | 46.94817 | 6.29697 | 36022 ft | 471 kts | 339° |
| 2026-05-07 08:15 | 47.01016 | 6.26595 | 36035 ft | 471 kts | 339° |
| 2026-05-07 08:16 | 47.07096 | 6.23251 | 36033 ft | 469 kts | 333° |
| 2026-05-07 08:16 | 47.13005 | 6.19164 | 36030 ft | 469 kts | 332° |
| 2026-05-07 08:17 | 47.18856 | 6.14944 | 36028 ft | 468 kts | 332° |
| 2026-05-07 08:17 | 47.24695 | 6.10695 | 36034 ft | 468 kts | 332° |
| 2026-05-07 08:18 | 47.30536 | 6.06467 | 36030 ft | 468 kts | 334° |
| 2026-05-07 08:18 | 47.36785 | 6.03748 | 36033 ft | 472 kts | 351° |
| 2026-05-07 08:19 | 47.43365 | 6.03344 | 36031 ft | 474 kts | 358° |
| 2026-05-07 08:19 | 47.49974 | 6.03484 | 36032 ft | 475 kts | 359° |
| 2026-05-07 08:20 | 47.56588 | 6.03707 | 36031 ft | 476 kts | 359° |
| 2026-05-07 08:20 | 47.63205 | 6.03894 | 36028 ft | 475 kts | 359° |
| 2026-05-07 08:21 | 47.69822 | 6.04051 | 36028 ft | 476 kts | 359° |
| 2026-05-07 08:21 | 47.76406 | 6.05150 | 36029 ft | 478 kts | 10° |
| 2026-05-07 08:22 | 47.82843 | 6.07363 | 36030 ft | 479 kts | 12° |
| 2026-05-07 08:22 | 47.89344 | 6.09825 | 36036 ft | 479 kts | 13° |
| 2026-05-07 08:23 | 47.95749 | 6.12280 | 36033 ft | 478 kts | 13° |
| 2026-05-07 08:23 | 48.02196 | 6.14735 | 36032 ft | 478 kts | 13° |
| 2026-05-07 08:24 | 48.08649 | 6.17182 | 36030 ft | 478 kts | 13° |
| 2026-05-07 08:24 | 48.15096 | 6.19630 | 36023 ft | 478 kts | 13° |
| 2026-05-07 08:25 | 48.21547 | 6.22086 | 36023 ft | 478 kts | 13° |
| 2026-05-07 08:25 | 48.27997 | 6.24549 | 36028 ft | 478 kts | 13° |
| 2026-05-07 08:26 | 48.37658 | 6.28252 | 36022 ft | 478 kts | 13° |
| 2026-05-07 08:26 | 48.44101 | 6.30728 | 36028 ft | 478 kts | 13° |
| 2026-05-07 08:27 | 48.50539 | 6.33209 | 36031 ft | 478 kts | 13° |
| 2026-05-07 08:27 | 48.56974 | 6.35695 | 36023 ft | 477 kts | 13° |
| 2026-05-07 08:28 | 48.63363 | 6.38166 | 36027 ft | 477 kts | 12° |
| 2026-05-07 08:28 | 48.69963 | 6.39528 | 36015 ft | 476 kts | 4° |
| 2026-05-07 08:29 | 48.76520 | 6.40280 | 36023 ft | 476 kts | 2° |
| 2026-05-07 08:29 | 48.83126 | 6.40920 | 36019 ft | 476 kts | 2° |
| 2026-05-07 08:30 | 48.89731 | 6.41563 | 36020 ft | 476 kts | 2° |
| 2026-05-07 08:30 | 48.96332 | 6.42227 | 36019 ft | 475 kts | 2° |
| 2026-05-07 08:31 | 49.02924 | 6.42900 | 36021 ft | 475 kts | 2° |
| 2026-05-07 08:31 | 49.09520 | 6.43402 | 36016 ft | 474 kts | 356° |
| 2026-05-07 08:32 | 49.16003 | 6.41853 | 36026 ft | 472 kts | 346° |
| 2026-05-07 08:32 | 49.22361 | 6.39384 | 36015 ft | 472 kts | 344° |
| 2026-05-07 08:33 | 49.28698 | 6.36728 | 36012 ft | 472 kts | 343° |
| 2026-05-07 08:33 | 49.35032 | 6.34069 | 36012 ft | 472 kts | 343° |
| 2026-05-07 08:34 | 49.41366 | 6.31434 | 36018 ft | 472 kts | 344° |
| 2026-05-07 08:34 | 49.47708 | 6.28804 | 36017 ft | 472 kts | 344° |
| 2026-05-07 08:35 | 49.54052 | 6.26183 | 36021 ft | 472 kts | 344° |
| 2026-05-07 08:35 | 49.60390 | 6.23589 | 36018 ft | 471 kts | 344° |
| 2026-05-07 08:36 | 49.66729 | 6.20992 | 36017 ft | 471 kts | 344° |
| 2026-05-07 08:36 | 49.73065 | 6.18387 | 36014 ft | 471 kts | 344° |
| 2026-05-07 08:37 | 49.79357 | 6.15790 | 36020 ft | 471 kts | 344° |
| 2026-05-07 08:37 | 49.85691 | 6.13176 | 36010 ft | 471 kts | 345° |
| 2026-05-07 08:38 | 49.92082 | 6.10870 | 36006 ft | 471 kts | 346° |
| 2026-05-07 08:38 | 49.98475 | 6.08634 | 36007 ft | 471 kts | 346° |
| 2026-05-07 08:39 | 50.03791 | 6.06764 | 36005 ft | 471 kts | 346° |
| 2026-05-07 08:39 | 50.10180 | 6.04506 | 36007 ft | 471 kts | 346° |
| 2026-05-07 08:40 | 50.16564 | 6.02242 | 36015 ft | 471 kts | 346° |
| 2026-05-07 08:40 | 50.19755 | 6.01108 | 35727 ft | 470 kts | 346° |
| 2026-05-07 08:40 | 50.22940 | 5.99974 | 35173 ft | 468 kts | 346° |
| 2026-05-07 08:41 | 50.26107 | 5.98846 | 34694 ft | 465 kts | 346° |
| 2026-05-07 08:41 | 50.29216 | 5.97736 | 34363 ft | 450 kts | 347° |
| 2026-05-07 08:41 | 50.32230 | 5.96659 | 33740 ft | 440 kts | 347° |
| 2026-05-07 08:41 | 50.35191 | 5.95599 | 32929 ft | 433 kts | 347° |
| 2026-05-07 08:42 | 50.38112 | 5.94553 | 32133 ft | 427 kts | 347° |
| 2026-05-07 08:42 | 50.40988 | 5.93521 | 31372 ft | 421 kts | 346° |
| 2026-05-07 08:42 | 50.43826 | 5.92501 | 30519 ft | 418 kts | 346° |
| 2026-05-07 08:42 | 50.46652 | 5.91485 | 29576 ft | 415 kts | 346° |
| 2026-05-07 08:43 | 50.49453 | 5.90476 | 28589 ft | 412 kts | 346° |
| 2026-05-07 08:43 | 50.52241 | 5.89472 | 27634 ft | 409 kts | 346° |
| 2026-05-07 08:43 | 50.55002 | 5.88475 | 26712 ft | 406 kts | 346° |
| 2026-05-07 08:43 | 50.57746 | 5.87483 | 25813 ft | 403 kts | 346° |
| 2026-05-07 08:44 | 50.60465 | 5.86499 | 24943 ft | 399 kts | 345° |
| 2026-05-07 08:44 | 50.63083 | 5.85142 | 24106 ft | 393 kts | 332° |
| 2026-05-07 08:44 | 50.65268 | 5.82654 | 23220 ft | 387 kts | 312° |
| 2026-05-07 08:44 | 50.66795 | 5.79222 | 22267 ft | 381 kts | 298° |
| 2026-05-07 08:45 | 50.68016 | 5.75541 | 21349 ft | 377 kts | 296° |
| 2026-05-07 08:45 | 50.69180 | 5.71849 | 20448 ft | 374 kts | 296° |
| 2026-05-07 08:45 | 50.70329 | 5.68200 | 19574 ft | 370 kts | 296° |
| 2026-05-07 08:45 | 50.71474 | 5.64585 | 18727 ft | 366 kts | 296° |
| 2026-05-07 08:46 | 50.72612 | 5.61006 | 17835 ft | 363 kts | 296° |
| 2026-05-07 08:46 | 50.73737 | 5.57475 | 16908 ft | 358 kts | 296° |
| 2026-05-07 08:46 | 50.74847 | 5.53992 | 16047 ft | 350 kts | 296° |
| 2026-05-07 08:46 | 50.75928 | 5.50599 | 15212 ft | 342 kts | 296° |
| 2026-05-07 08:47 | 50.76987 | 5.47270 | 14409 ft | 335 kts | 296° |
| 2026-05-07 08:47 | 50.78023 | 5.44011 | 13589 ft | 329 kts | 296° |
| 2026-05-07 08:47 | 50.79041 | 5.40803 | 12705 ft | 323 kts | 296° |
| 2026-05-07 08:47 | 50.80039 | 5.37654 | 11855 ft | 318 kts | 296° |
| 2026-05-07 08:48 | 50.81022 | 5.34549 | 11026 ft | 314 kts | 297° |
| 2026-05-07 08:48 | 50.81994 | 5.31477 | 10222 ft | 311 kts | 297° |
| 2026-05-07 08:48 | 50.82955 | 5.28433 | 9358 ft | 308 kts | 297° |
| 2026-05-07 08:48 | 50.83906 | 5.25422 | 8481 ft | 304 kts | 297° |
| 2026-05-07 08:49 | 50.84842 | 5.22453 | 7626 ft | 299 kts | 297° |
| 2026-05-07 08:49 | 50.85764 | 5.19524 | 6806 ft | 295 kts | 297° |
| 2026-05-07 08:49 | 50.86673 | 5.16633 | 5955 ft | 292 kts | 297° |
| 2026-05-07 08:49 | 50.87556 | 5.13754 | 5142 ft | 290 kts | 295° |
| 2026-05-07 08:50 | 50.88331 | 5.10789 | 4462 ft | 293 kts | 293° |
| 2026-05-07 08:50 | 50.89063 | 5.07811 | 3920 ft | 295 kts | 292° |
| 2026-05-07 08:50 | 50.89792 | 5.04813 | 3649 ft | 286 kts | 292° |
| 2026-05-07 08:50 | 50.90500 | 5.01900 | 3570 ft | 283 kts | 292° |
| 2026-05-07 08:51 | 50.91210 | 4.98988 | 3496 ft | 284 kts | 292° |
| 2026-05-07 08:51 | 50.91918 | 4.96074 | 3418 ft | 283 kts | 292° |
| 2026-05-07 08:51 | 50.92636 | 4.93121 | 3344 ft | 283 kts | 292° |
| 2026-05-07 08:51 | 50.93333 | 4.90246 | 3268 ft | 283 kts | 292° |
| 2026-05-07 08:52 | 50.94039 | 4.87329 | 3195 ft | 283 kts | 293° |
| 2026-05-07 08:52 | 50.94746 | 4.84408 | 3119 ft | 283 kts | 292° |
| 2026-05-07 08:52 | 50.95449 | 4.81495 | 3038 ft | 283 kts | 292° |
| 2026-05-07 08:52 | 50.95827 | 4.78482 | 3042 ft | 275 kts | 267° |
| 2026-05-07 08:53 | 50.95381 | 4.75624 | 3036 ft | 260 kts | 251° |
| 2026-05-07 08:53 | 50.94724 | 4.73042 | 3030 ft | 245 kts | 248° |
| 2026-05-07 08:53 | 50.94097 | 4.70584 | 2883 ft | 237 kts | 250° |
| 2026-05-07 08:53 | 50.93542 | 4.68161 | 2494 ft | 230 kts | 251° |
| 2026-05-07 08:54 | 50.93005 | 4.65818 | 2032 ft | 220 kts | 250° |
| 2026-05-07 08:54 | 50.92494 | 4.63614 | 1733 ft | 206 kts | 250° |
| 2026-05-07 08:54 | 50.92022 | 4.61558 | 1447 ft | 192 kts | 250° |
| 2026-05-07 08:54 | 50.91582 | 4.59661 | 1186 ft | 175 kts | 250° |
| 2026-05-07 08:55 | 50.91182 | 4.57926 | 954 ft | 161 kts | 250° |
| 2026-05-07 08:55 | 50.90814 | 4.56330 | 744 ft | 150 kts | 250° |
| 2026-05-07 08:55 | 50.90452 | 4.54774 | 538 ft | 149 kts | 251° |
| 2026-05-07 08:55 | 50.90097 | 4.53256 | 355 ft | 144 kts | 253° |
| 2026-05-07 08:56 | 50.89773 | 4.51816 | 205 ft | 133 kts | 251° |
| 2026-05-07 08:56 | 50.89514 | 4.50662 | 200 ft | 78 kts | 250° |
| 2026-05-07 08:56 | 50.89400 | 4.50167 | 201 ft | 30 kts | 249° |
| 2026-05-07 08:56 | 50.89335 | 4.49856 | 192 ft | 30 kts | 268° |
| 2026-05-07 08:57 | 50.89421 | 4.49565 | 204 ft | 30 kts | 308° |
| 2026-05-07 08:57 | 50.89550 | 4.49297 | 204 ft | 30 kts | 308° |
| 2026-05-07 08:57 | 50.89644 | 4.49161 | 204 ft | 6 kts | 348° |
| 2026-05-07 08:57 | 50.89711 | 4.49171 | 194 ft | 13 kts | 14° |
| 2026-05-07 08:58 | 50.89816 | 4.49214 | 200 ft | 18 kts | 15° |
| 2026-05-07 08:58 | 50.89951 | 4.49270 | 200 ft | 23 kts | 13° |
| 2026-05-07 08:58 | 50.90117 | 4.49337 | 196 ft | 26 kts | 14° |
| 2026-05-07 08:58 | 50.90290 | 4.49403 | 197 ft | 24 kts | 2° |
| 2026-05-07 08:59 | 50.90383 | 4.49296 | 198 ft | 13 kts | 277° |
| 2026-05-07 08:59 | 50.90356 | 4.49155 | 196 ft | 14 kts | 246° |
| 2026-05-07 08:59 | 50.90313 | 4.49003 | 199 ft | 16 kts | 246° |
| 2026-05-07 08:59 | 50.90264 | 4.48835 | 199 ft | 17 kts | 246° |
| 2026-05-07 09:00 | 50.90219 | 4.48677 | 204 ft | 15 kts | 245° |
| 2026-05-07 09:00 | 50.90174 | 4.48524 | 197 ft | 16 kts | 245° |
| 2026-05-07 09:00 | 50.90150 | 4.48416 | 200 ft | 4 kts | 284° |
| 2026-05-07 09:00 | 50.90169 | 4.48389 | 200 ft | 3 kts | 326° |
| 2026-05-07 09:01 | 50.90185 | 4.48375 | 198 ft | 2 kts | 334° |
| 2026-05-07 09:01 | 50.90199 | 4.48365 | 204 ft | 2 kts | 335° |
| 2026-05-07 09:01 | 50.90209 | 4.48358 | 203 ft | 0 kts | 335° |
| 2026-05-07 09:02 | 50.90212 | 4.48355 | 202 ft | 0 kts | 335° |